Flinterbrise — PHCA — position and weather

sailwx.info

Track history (hours):
 
Tides and Currents Weather Stations Pressure Air Temp Water Temp Dewpoint Dewpoint Depression Visibility Wind Speed Wind Dir Waves Ship Positions

Flinterbrise

Last reported at 2015-May-24 23:23 UTC. Time now 2015-May-27 20:05 UTC.
Position N 59°51' E 021°27'.

Length 83 m; draft 5.2 m.

Type: Cargo ship. MMSI: 246044000.

Date/timePositionNaut miles runAvg speedWind from/ knotsBaromVisibWave heightAir tempDewpointWater temp
2015-May-24 23:23N 59°51' E 021°27'8 9.6
2015-May-24 22:34N 59°44' E 021°20'31310.3
2015-May-23 16:20N 55°37' E 015°22'810.9
2015-May-23 15:34N 55°33' E 015°09'1110.9
2015-May-23 14:33N 55°27' E 014°52'1110.3
2015-May-23 13:32N 55°22' E 014°37'1110.4
2015-May-23 12:28N 55°13' E 014°25'1010.5
2015-May-23 11:33N 55°05' E 014°15'4010.1
2015-May-23 07:33N 54°49' E 013°10'1010.1
2015-May-23 06:33N 54°46' E 012°54'29 9.6
2015-May-23 03:32N 54°28' E 012°15'9 9.2
2015-May-23 02:33N 54°24' E 012°00'1010.4
2015-May-23 01:33N 54°25' E 011°43'1010.3
2015-May-23 00:34N 54°30' E 011°27'9 9.3
2015-May-22 23:33N 54°34' E 011°13'10 8.4
2015-May-22 22:23N 54°34' E 010°56'1010.2
2015-May-22 21:23N 54°33' E 010°38'911.3
2015-May-22 20:33N 54°30' E 010°23'9 8.7
2015-May-22 19:33N 54°24' E 010°12'3 3.1
2015-May-22 18:33N 54°22' E 010°09'6 6.1
2015-May-22 17:33N 54°21' E 009°58'8 7.8
2015-May-22 16:33N 54°21' E 009°45'6 6.2
2015-May-22 15:32N 54°16' E 009°38'15 6.1
2015-May-22 13:08N 54°06' E 009°20'5 8.3
2015-May-22 12:33N 54°01' E 009°18'8 8.4
2015-May-22 11:33N 53°54' E 009°10'1 1.2
2015-May-22 10:34N 53°53' E 009°09'1010.0
2015-May-22 09:33N 53°48' E 009°23'1212.1
2015-May-22 08:33N 53°37' E 009°33'1211.5
2015-May-22 07:33N 53°33' E 009°51'4 2.8
2015-May-22 06:16N 53°31' E 009°57'0 0.0
2015-May-22 05:30N 53°31' E 009°57'0 0.0
2015-May-22 04:32N 53°31' E 009°57'0 0.0
2015-May-22 03:29N 53°31' E 009°57'0 0.0
2015-May-22 02:25N 53°31' E 009°57'0 0.0
2015-May-22 01:33N 53°31' E 009°57'0 0.0
2015-May-22 00:33N 53°31' E 009°57'0 0.0
2015-May-21 23:33N 53°31' E 009°57'0 0.0
2015-May-21 22:33N 53°31' E 009°57'7 6.7
2015-May-21 21:33N 53°34' E 009°46'8 8.1
2015-May-21 20:33N 53°37' E 009°34'0 0.1
2015-May-21 19:24N 53°37' E 009°34'0 0.0
2015-May-21 18:31N 53°37' E 009°34'0 0.1
2015-May-21 17:33N 53°37' E 009°34'0 0.0
2015-May-21 16:18N 53°37' E 009°34'0 0.0
2015-May-21 15:24N 53°37' E 009°34'0 0.0
2015-May-21 14:27N 53°37' E 009°34'0 0.0
2015-May-21 12:24N 53°37' E 009°34'0 0.1
2015-May-21 11:27N 53°37' E 009°34'0 0.0
2015-May-21 10:18N 53°37' E 009°34'0 0.0
2015-May-21 09:27N 53°37' E 009°34'0 0.0
2015-May-21 05:22N 53°37' E 009°34'0 0.1
2015-May-21 04:30N 53°37' E 009°34'0 0.0
2015-May-21 03:30N 53°37' E 009°34'0 0.0
2015-May-21 02:33N 53°37' E 009°34'0 0.0
2015-May-21 01:30N 53°37' E 009°34'0 0.1
2015-May-20 23:31N 53°37' E 009°34'2 1.9
2015-May-20 22:33N 53°38' E 009°32'10 9.8
2015-May-20 21:33N 53°47' E 009°23'9 9.0
2015-May-20 20:33N 53°53' E 009°12'9 8.8
2015-May-20 19:33N 53°51' E 008°58'8 7.7
2015-May-20 18:33N 53°51' E 008°45'8 7.8
2015-May-20 17:33N 53°57' E 008°36'10 9.7
2015-May-20 16:32N 53°59' E 008°20'10 9.8
2015-May-20 15:33N 53°58' E 008°03'10 9.6
2015-May-20 14:33N 53°56' E 007°47'1010.3
2015-May-20 13:33N 53°54' E 007°30'1110.7
2015-May-20 12:30N 53°51' E 007°12'4611.5
2015-May-20 08:29N 53°39' E 005°56'1111.9
2015-May-20 07:33N 53°36' E 005°38'1212.0
2015-May-20 06:33N 53°32' E 005°19'1212.0
2015-May-20 05:33N 53°28' E 005°01'1211.8
2015-May-20 04:33N 53°22' E 004°43'3310.8
2015-May-20 01:28N 52°53' E 004°16'8 9.4
2015-May-20 00:33N 52°46' E 004°09'9 9.4
2015-May-19 23:33N 52°38' E 004°00'9 9.1
2015-May-19 22:33N 52°30' E 003°54'13 8.9
2015-May-19 21:06N 52°17' E 003°52'8 9.4
2015-May-19 20:14N 52°09' E 003°55'810.2
2015-May-19 19:27N 52°01' E 003°60'1213.2
2015-May-19 18:33N 51°55' E 004°15'5 2.3
2015-May-19 16:21N 51°54' E 004°24'0 0.0
2015-May-19 15:30N 51°54' E 004°24'0 0.0
2015-May-19 13:09N 51°54' E 004°24'0 0.0
2015-May-19 12:33N 51°54' E 004°24'0 0.0
2015-May-19 11:30N 51°54' E 004°24'0 0.0
2015-May-19 10:33N 51°54' E 004°24'0 0.0
2015-May-19 09:30N 51°54' E 004°24'0 0.0
2015-May-19 08:33N 51°54' E 004°24'0 0.0
2015-May-19 07:33N 51°54' E 004°24'0 0.0
2015-May-19 06:30N 51°54' E 004°24'0 0.0
2015-May-19 05:30N 51°54' E 004°24'0 0.0
2015-May-19 04:30N 51°54' E 004°24'0 0.0
2015-May-19 03:33N 51°54' E 004°24'0 0.0
2015-May-19 02:33N 51°54' E 004°24'0 0.0
2015-May-19 01:33N 51°54' E 004°24'0 0.0
2015-May-19 00:24N 51°54' E 004°24'0 0.0
2015-May-18 23:33N 51°54' E 004°24'0 0.0
2015-May-18 22:33N 51°54' E 004°24'0 0.0
2015-May-18 21:33N 51°54' E 004°24'0 0.0
2015-May-18 20:30N 51°54' E 004°24'0 0.0
2015-May-18 19:30N 51°54' E 004°24'0 0.0
2015-May-18 18:30N 51°54' E 004°24'0 0.0
2015-May-18 17:30N 51°54' E 004°24'0 0.0
2015-May-18 16:33N 51°54' E 004°24'0 0.0
2015-May-18 15:30N 51°54' E 004°24'0 0.0
2015-May-18 14:30N 51°54' E 004°24'0 0.0
2015-May-18 13:30N 51°54' E 004°24'0 0.0
2015-May-18 12:30N 51°54' E 004°24'0 0.0
2015-May-18 11:30N 51°54' E 004°24'0 0.0
2015-May-18 10:33N 51°54' E 004°24'0 0.0
2015-May-18 09:30N 51°54' E 004°24'0 0.0
2015-May-18 08:27N 51°54' E 004°24'0 0.0
2015-May-18 07:33N 51°54' E 004°24'0 0.0
2015-May-18 06:33N 51°54' E 004°24'0 0.0
2015-May-18 05:33N 51°54' E 004°24'0 0.0
2015-May-18 04:33N 51°54' E 004°24'0 0.0
2015-May-18 03:33N 51°54' E 004°24'0 0.0
2015-May-18 02:33N 51°54' E 004°24'0 0.0
2015-May-18 01:33N 51°54' E 004°24'0 0.0
2015-May-18 00:30N 51°54' E 004°24'0 0.0
2015-May-17 23:30N 51°54' E 004°24'0 0.0
2015-May-17 22:30N 51°54' E 004°24'0 0.0
2015-May-17 21:33N 51°54' E 004°24'0 0.0
2015-May-17 20:33N 51°54' E 004°24'0 0.0
2015-May-17 19:33N 51°54' E 004°24'0 0.0
2015-May-17 18:33N 51°54' E 004°24'0 0.0
2015-May-17 17:33N 51°54' E 004°24'0 0.0
2015-May-17 16:27N 51°54' E 004°24'0 0.0
2015-May-17 15:33N 51°54' E 004°24'0 0.0
2015-May-17 14:24N 51°54' E 004°24'0 0.0
2015-May-17 13:30N 51°54' E 004°24'0 0.0
2015-May-17 12:27N 51°54' E 004°24'0 0.0
2015-May-17 11:30N 51°54' E 004°24'0 0.0
2015-May-17 10:30N 51°54' E 004°24'1 0.6
2015-May-17 09:33N 51°54' E 004°23'9 9.1
2015-May-17 08:33N 51°58' E 004°09'14 9.7
2015-May-17 07:06N 52°00' E 003°47'1810.5
2015-May-17 05:26N 52°18' E 003°47'9 9.2
2015-May-17 04:24N 52°27' E 003°51'7 8.6
2015-May-17 03:33N 52°34' E 003°53'8 8.1
2015-May-17 02:33N 52°42' E 003°55'8 7.9
2015-May-17 01:33N 52°50' E 003°58'11 8.0
2015-May-17 00:08N 53°00' E 004°07'41 9.1
2015-May-16 19:33N 53°32' E 004°52'8 8.0
2015-May-16 18:32N 53°35' E 005°05'7 7.4
2015-May-16 17:33N 53°37' E 005°16'7 7.1
2015-May-16 16:33N 53°39' E 005°28'7 7.4
2015-May-16 15:33N 53°42' E 005°39'8 8.4
2015-May-16 14:32N 53°44' E 005°53'53 9.8
2015-May-16 09:10N 53°59' E 007°19'4 6.1
2015-May-16 08:33N 53°60' E 007°25'9 8.4
2015-May-16 07:33N 54°02' E 007°39'8 8.1
2015-May-16 06:33N 54°02' E 007°53'8 8.1
2015-May-16 05:33N 54°02' E 008°07'1913.4
2015-May-16 04:10N 53°57' E 008°38'2 3.5
2015-May-16 03:33N 53°56' E 008°40'1212.2
2015-May-16 02:33N 53°51' E 008°59'7 6.5
2015-May-16 01:33N 53°54' E 009°09'9 8.5
2015-May-16 00:33N 54°01' E 009°18'15 6.8
2015-May-15 22:21N 54°12' E 009°34'9 6.8
2015-May-15 21:06N 54°19' E 009°43'5 8.4
2015-May-15 20:33N 54°22' E 009°49'7 7.3
2015-May-15 19:33N 54°22' E 010°02'4 3.8
2015-May-15 18:33N 54°22' E 010°08'3 2.7
2015-May-15 17:33N 54°23' E 010°12'9 8.9
2015-May-15 16:33N 54°31' E 010°20'10 9.8
2015-May-15 15:33N 54°35' E 010°36'11 9.7
2015-May-15 14:26N 54°36' E 010°55'8 9.4
2015-May-15 13:33N 54°36' E 011°09'9 9.5
2015-May-15 12:33N 54°33' E 011°25'9 9.0
2015-May-15 11:33N 54°30' E 011°39'9 8.9
2015-May-15 10:33N 54°27' E 011°53'9 9.3
2015-May-15 09:33N 54°28' E 012°10'10 9.9
2015-May-15 08:30N 54°38' E 012°16'11 9.7
2015-May-15 07:24N 54°44' E 012°31'2310.2
2015-May-15 05:10N 54°53' E 013°07'20 9.6
2015-May-15 03:08N 54°59' E 013°40'6 9.7
2015-May-15 02:33N 55°01' E 013°49'10 9.8
2015-May-15 01:32N 55°05' E 014°05'10 9.6
2015-May-15 00:32N 55°12' E 014°17'10 9.7
2015-May-14 23:31N 55°19' E 014°27'  
Track history (hours):
 
Tides and Currents Weather Stations Pressure Air Temp Water Temp Dewpoint Dewpoint Depression Visibility Wind Speed Wind Dir Waves Ship Positions

Flinterbrise

Last reported at 2015-May-24 23:23 UTC. Time now 2015-May-27 20:05 UTC.
Position N 59°51' E 021°27'.

Length 83 m; draft 5.2 m.

Type: Cargo ship. MMSI: 246044000.

Date/timePositionNaut miles runAvg speedWind from/ knotsBaromVisibWave heightAir tempDewpointWater temp
2015-May-24 23:23N 59°51' E 021°27'8 9.6
2015-May-24 22:34N 59°44' E 021°20'31310.3
2015-May-23 16:20N 55°37' E 015°22'810.9
2015-May-23 15:34N 55°33' E 015°09'1110.9
2015-May-23 14:33N 55°27' E 014°52'1110.3
2015-May-23 13:32N 55°22' E 014°37'1110.4
2015-May-23 12:28N 55°13' E 014°25'1010.5
2015-May-23 11:33N 55°05' E 014°15'4010.1
2015-May-23 07:33N 54°49' E 013°10'1010.1
2015-May-23 06:33N 54°46' E 012°54'29 9.6
2015-May-23 03:32N 54°28' E 012°15'9 9.2
2015-May-23 02:33N 54°24' E 012°00'1010.4
2015-May-23 01:33N 54°25' E 011°43'1010.3
2015-May-23 00:34N 54°30' E 011°27'9 9.3
2015-May-22 23:33N 54°34' E 011°13'10 8.4
2015-May-22 22:23N 54°34' E 010°56'1010.2
2015-May-22 21:23N 54°33' E 010°38'911.3
2015-May-22 20:33N 54°30' E 010°23'9 8.7
2015-May-22 19:33N 54°24' E 010°12'3 3.1
2015-May-22 18:33N 54°22' E 010°09'6 6.1
2015-May-22 17:33N 54°21' E 009°58'8 7.8
2015-May-22 16:33N 54°21' E 009°45'6 6.2
2015-May-22 15:32N 54°16' E 009°38'15 6.1
2015-May-22 13:08N 54°06' E 009°20'5 8.3
2015-May-22 12:33N 54°01' E 009°18'8 8.4
2015-May-22 11:33N 53°54' E 009°10'1 1.2
2015-May-22 10:34N 53°53' E 009°09'1010.0
2015-May-22 09:33N 53°48' E 009°23'1212.1
2015-May-22 08:33N 53°37' E 009°33'1211.5
2015-May-22 07:33N 53°33' E 009°51'4 2.8
2015-May-22 06:16N 53°31' E 009°57'0 0.0
2015-May-22 05:30N 53°31' E 009°57'0 0.0
2015-May-22 04:32N 53°31' E 009°57'0 0.0
2015-May-22 03:29N 53°31' E 009°57'0 0.0
2015-May-22 02:25N 53°31' E 009°57'0 0.0
2015-May-22 01:33N 53°31' E 009°57'0 0.0
2015-May-22 00:33N 53°31' E 009°57'0 0.0
2015-May-21 23:33N 53°31' E 009°57'0 0.0
2015-May-21 22:33N 53°31' E 009°57'7 6.7
2015-May-21 21:33N 53°34' E 009°46'8 8.1
2015-May-21 20:33N 53°37' E 009°34'0 0.1
2015-May-21 19:24N 53°37' E 009°34'0 0.0
2015-May-21 18:31N 53°37' E 009°34'0 0.1
2015-May-21 17:33N 53°37' E 009°34'0 0.0
2015-May-21 16:18N 53°37' E 009°34'0 0.0
2015-May-21 15:24N 53°37' E 009°34'0 0.0
2015-May-21 14:27N 53°37' E 009°34'0 0.0
2015-May-21 12:24N 53°37' E 009°34'0 0.1
2015-May-21 11:27N 53°37' E 009°34'0 0.0
2015-May-21 10:18N 53°37' E 009°34'0 0.0
2015-May-21 09:27N 53°37' E 009°34'0 0.0
2015-May-21 05:22N 53°37' E 009°34'0 0.1
2015-May-21 04:30N 53°37' E 009°34'0 0.0
2015-May-21 03:30N 53°37' E 009°34'0 0.0
2015-May-21 02:33N 53°37' E 009°34'0 0.0
2015-May-21 01:30N 53°37' E 009°34'0 0.1
2015-May-20 23:31N 53°37' E 009°34'2 1.9
2015-May-20 22:33N 53°38' E 009°32'10 9.8
2015-May-20 21:33N 53°47' E 009°23'9 9.0
2015-May-20 20:33N 53°53' E 009°12'9 8.8
2015-May-20 19:33N 53°51' E 008°58'8 7.7
2015-May-20 18:33N 53°51' E 008°45'8 7.8
2015-May-20 17:33N 53°57' E 008°36'10 9.7
2015-May-20 16:32N 53°59' E 008°20'10 9.8
2015-May-20 15:33N 53°58' E 008°03'10 9.6
2015-May-20 14:33N 53°56' E 007°47'1010.3
2015-May-20 13:33N 53°54' E 007°30'1110.7
2015-May-20 12:30N 53°51' E 007°12'4611.5
2015-May-20 08:29N 53°39' E 005°56'1111.9
2015-May-20 07:33N 53°36' E 005°38'1212.0
2015-May-20 06:33N 53°32' E 005°19'1212.0
2015-May-20 05:33N 53°28' E 005°01'1211.8
2015-May-20 04:33N 53°22' E 004°43'3310.8
2015-May-20 01:28N 52°53' E 004°16'8 9.4
2015-May-20 00:33N 52°46' E 004°09'9 9.4
2015-May-19 23:33N 52°38' E 004°00'9 9.1
2015-May-19 22:33N 52°30' E 003°54'13 8.9
2015-May-19 21:06N 52°17' E 003°52'8 9.4
2015-May-19 20:14N 52°09' E 003°55'810.2
2015-May-19 19:27N 52°01' E 003°60'1213.2
2015-May-19 18:33N 51°55' E 004°15'5 2.3
2015-May-19 16:21N 51°54' E 004°24'0 0.0
2015-May-19 15:30N 51°54' E 004°24'0 0.0
2015-May-19 13:09N 51°54' E 004°24'0 0.0
2015-May-19 12:33N 51°54' E 004°24'0 0.0
2015-May-19 11:30N 51°54' E 004°24'0 0.0
2015-May-19 10:33N 51°54' E 004°24'0 0.0
2015-May-19 09:30N 51°54' E 004°24'0 0.0
2015-May-19 08:33N 51°54' E 004°24'0 0.0
2015-May-19 07:33N 51°54' E 004°24'0 0.0
2015-May-19 06:30N 51°54' E 004°24'0 0.0
2015-May-19 05:30N 51°54' E 004°24'0 0.0
2015-May-19 04:30N 51°54' E 004°24'0 0.0
2015-May-19 03:33N 51°54' E 004°24'0 0.0
2015-May-19 02:33N 51°54' E 004°24'0 0.0
2015-May-19 01:33N 51°54' E 004°24'0 0.0
2015-May-19 00:24N 51°54' E 004°24'0 0.0
2015-May-18 23:33N 51°54' E 004°24'0 0.0
2015-May-18 22:33N 51°54' E 004°24'0 0.0
2015-May-18 21:33N 51°54' E 004°24'0 0.0
2015-May-18 20:30N 51°54' E 004°24'0 0.0
2015-May-18 19:30N 51°54' E 004°24'0 0.0
2015-May-18 18:30N 51°54' E 004°24'0 0.0
2015-May-18 17:30N 51°54' E 004°24'0 0.0
2015-May-18 16:33N 51°54' E 004°24'0 0.0
2015-May-18 15:30N 51°54' E 004°24'0 0.0
2015-May-18 14:30N 51°54' E 004°24'0 0.0
2015-May-18 13:30N 51°54' E 004°24'0 0.0
2015-May-18 12:30N 51°54' E 004°24'0 0.0
2015-May-18 11:30N 51°54' E 004°24'0 0.0
2015-May-18 10:33N 51°54' E 004°24'0 0.0
2015-May-18 09:30N 51°54' E 004°24'0 0.0
2015-May-18 08:27N 51°54' E 004°24'0 0.0
2015-May-18 07:33N 51°54' E 004°24'0 0.0
2015-May-18 06:33N 51°54' E 004°24'0 0.0
2015-May-18 05:33N 51°54' E 004°24'0 0.0
2015-May-18 04:33N 51°54' E 004°24'0 0.0
2015-May-18 03:33N 51°54' E 004°24'0 0.0
2015-May-18 02:33N 51°54' E 004°24'0 0.0
2015-May-18 01:33N 51°54' E 004°24'0 0.0
2015-May-18 00:30N 51°54' E 004°24'0 0.0
2015-May-17 23:30N 51°54' E 004°24'0 0.0
2015-May-17 22:30N 51°54' E 004°24'0 0.0
2015-May-17 21:33N 51°54' E 004°24'0 0.0
2015-May-17 20:33N 51°54' E 004°24'0 0.0
2015-May-17 19:33N 51°54' E 004°24'0 0.0
2015-May-17 18:33N 51°54' E 004°24'0 0.0
2015-May-17 17:33N 51°54' E 004°24'0 0.0
2015-May-17 16:27N 51°54' E 004°24'0 0.0
2015-May-17 15:33N 51°54' E 004°24'0 0.0
2015-May-17 14:24N 51°54' E 004°24'0 0.0
2015-May-17 13:30N 51°54' E 004°24'0 0.0
2015-May-17 12:27N 51°54' E 004°24'0 0.0
2015-May-17 11:30N 51°54' E 004°24'0 0.0
2015-May-17 10:30N 51°54' E 004°24'1 0.6
2015-May-17 09:33N 51°54' E 004°23'9 9.1
2015-May-17 08:33N 51°58' E 004°09'14 9.7
2015-May-17 07:06N 52°00' E 003°47'1810.5
2015-May-17 05:26N 52°18' E 003°47'9 9.2
2015-May-17 04:24N 52°27' E 003°51'7 8.6
2015-May-17 03:33N 52°34' E 003°53'8 8.1
2015-May-17 02:33N 52°42' E 003°55'8 7.9
2015-May-17 01:33N 52°50' E 003°58'11 8.0
2015-May-17 00:08N 53°00' E 004°07'41 9.1
2015-May-16 19:33N 53°32' E 004°52'8 8.0
2015-May-16 18:32N 53°35' E 005°05'7 7.4
2015-May-16 17:33N 53°37' E 005°16'7 7.1
2015-May-16 16:33N 53°39' E 005°28'7 7.4
2015-May-16 15:33N 53°42' E 005°39'8 8.4
2015-May-16 14:32N 53°44' E 005°53'53 9.8
2015-May-16 09:10N 53°59' E 007°19'4 6.1
2015-May-16 08:33N 53°60' E 007°25'9 8.4
2015-May-16 07:33N 54°02' E 007°39'8 8.1
2015-May-16 06:33N 54°02' E 007°53'8 8.1
2015-May-16 05:33N 54°02' E 008°07'1913.4
2015-May-16 04:10N 53°57' E 008°38'2 3.5
2015-May-16 03:33N 53°56' E 008°40'1212.2
2015-May-16 02:33N 53°51' E 008°59'7 6.5
2015-May-16 01:33N 53°54' E 009°09'9 8.5
2015-May-16 00:33N 54°01' E 009°18'15 6.8
2015-May-15 22:21N 54°12' E 009°34'9 6.8
2015-May-15 21:06N 54°19' E 009°43'5 8.4
2015-May-15 20:33N 54°22' E 009°49'7 7.3
2015-May-15 19:33N 54°22' E 010°02'4 3.8
2015-May-15 18:33N 54°22' E 010°08'3 2.7
2015-May-15 17:33N 54°23' E 010°12'9 8.9
2015-May-15 16:33N 54°31' E 010°20'10 9.8
2015-May-15 15:33N 54°35' E 010°36'11 9.7
2015-May-15 14:26N 54°36' E 010°55'8 9.4
2015-May-15 13:33N 54°36' E 011°09'9 9.5
2015-May-15 12:33N 54°33' E 011°25'9 9.0
2015-May-15 11:33N 54°30' E 011°39'9 8.9
2015-May-15 10:33N 54°27' E 011°53'9 9.3
2015-May-15 09:33N 54°28' E 012°10'10 9.9
2015-May-15 08:30N 54°38' E 012°16'11 9.7
2015-May-15 07:24N 54°44' E 012°31'2310.2
2015-May-15 05:10N 54°53' E 013°07'20 9.6
2015-May-15 03:08N 54°59' E 013°40'6 9.7
2015-May-15 02:33N 55°01' E 013°49'10 9.8
2015-May-15 01:32N 55°05' E 014°05'10 9.6
2015-May-15 00:32N 55°12' E 014°17'10 9.7
2015-May-14 23:31N 55°19' E 014°27'  

Dump ship's entire track history